createdAt,value
2023-03-06T00:02:19.422Z,86.40
2023-03-06T00:17:41.860Z,85.70
2023-03-06T00:28:58.767Z,86.10
2023-03-06T00:40:57.530Z,85.30
2023-03-06T00:46:30.754Z,86.10
2023-03-06T00:52:03.300Z,84.50
2023-03-06T00:57:37.414Z,83.80
2023-03-06T01:03:28.427Z,82.80
2023-03-06T01:12:14.420Z,80.40
2023-03-06T01:17:58.516Z,80.90
2023-03-06T01:32:56.669Z,78.60
2023-03-06T01:44:55.363Z,80.40
2023-03-06T01:56:54.299Z,78.50
2023-03-06T02:02:28.957Z,77.30
2023-03-06T02:08:01.745Z,75.00
2023-03-06T02:13:35.637Z,74.90
2023-03-06T02:19:09.119Z,74.10
2023-03-06T02:24:41.687Z,74.30
2023-03-06T02:30:12.543Z,73.50
2023-03-06T02:35:43.447Z,73.10
2023-03-06T02:56:39.694Z,70.40
2023-03-06T03:05:35.604Z,69.00
2023-03-06T03:23:46.732Z,67.90
2023-03-06T03:29:17.981Z,66.20
2023-03-06T03:57:22.155Z,63.00
2023-03-06T04:03:28.852Z,62.30
2023-03-06T04:09:12.069Z,62.50
2023-03-06T04:18:08.512Z,61.90
2023-03-06T04:23:41.832Z,61.70
2023-03-06T04:29:17.906Z,60.30
2023-03-06T04:38:04.297Z,59.70
2023-03-06T04:43:47.514Z,59.70
2023-03-06T04:49:30.926Z,59.00
2023-03-06T04:55:13.754Z,59.50
2023-03-06T05:07:22.947Z,57.90
2023-03-06T05:13:06.471Z,58.10
2023-03-06T05:24:43.212Z,57.60
2023-03-06T05:30:24.857Z,56.90
2023-03-06T05:49:07.937Z,55.60
2023-03-06T06:01:36.715Z,55.00
2023-03-06T06:07:36.099Z,54.60
2023-03-06T06:13:19.642Z,55.50
2023-03-06T06:24:56.481Z,54.30
2023-03-06T06:30:39.116Z,52.90
2023-03-06T06:36:22.098Z,51.50
2023-03-06T06:42:27.990Z,52.20
2023-03-06T06:48:34.022Z,51.60
2023-03-06T06:54:41.745Z,51.60
2023-03-06T07:06:50.389Z,51.70
2023-03-06T07:12:33.571Z,51.50
2023-03-06T07:18:14.279Z,51.50
2023-03-06T07:23:57.725Z,51.50
2023-03-06T07:29:42.047Z,50.90
2023-03-06T07:35:25.766Z,52.00
2023-03-06T07:41:10.908Z,50.90
2023-03-06T07:46:53.025Z,51.00
2023-03-06T07:52:35.667Z,51.40
2023-03-06T07:58:19.494Z,51.30
2023-03-06T08:10:28.793Z,50.70
2023-03-06T08:16:11.591Z,49.90
2023-03-06T08:22:23.970Z,50.80
2023-03-06T08:28:11.559Z,51.70
2023-03-06T08:33:54.524Z,51.10
2023-03-06T08:39:37.370Z,50.40
2023-03-06T08:45:18.840Z,49.80
2023-03-06T08:56:55.569Z,50.20
2023-03-06T09:02:38.934Z,51.10
2023-03-06T09:08:40.692Z,50.70
2023-03-06T09:30:26.151Z,50.70
2023-03-06T09:36:17.525Z,51.40
2023-03-06T09:48:17.032Z,51.40
2023-03-06T09:53:50.181Z,51.40
2023-03-06T09:59:21.139Z,52.10
2023-03-06T10:11:20.023Z,51.60
2023-03-06T10:16:52.973Z,51.70
2023-03-06T10:22:25.673Z,52.50
2023-03-06T10:27:58.885Z,52.90
2023-03-06T10:33:50.914Z,53.30
2023-03-06T10:39:23.964Z,53.90
2023-03-06T10:44:56.646Z,54.10
2023-03-06T10:50:29.608Z,54.50
2023-03-06T10:56:02.420Z,55.10
2023-03-06T11:01:35.480Z,57.60
2023-03-06T11:13:34.605Z,62.30
2023-03-06T11:19:05.778Z,64.00
2023-03-06T11:31:05.506Z,65.10
2023-03-06T11:36:39.351Z,65.10
2023-03-06T11:45:32.648Z,66.80
2023-03-06T11:51:35.897Z,67.50
2023-03-06T11:57:18.578Z,67.90
2023-03-06T12:03:04.404Z,68.70
2023-03-06T12:12:06.986Z,68.70
2023-03-06T12:17:58.294Z,69.00
2023-03-06T12:23:28.931Z,68.80
2023-03-06T12:29:01.904Z,69.10
2023-03-06T12:34:34.858Z,69.70
2023-03-06T12:40:05.692Z,70.00
2023-03-06T12:45:38.714Z,69.60
2023-03-06T12:51:14.865Z,69.30
2023-03-06T12:56:48.965Z,69.80
2023-03-06T13:02:22.402Z,70.10
2023-03-06T13:14:25.877Z,69.60
2023-03-06T13:19:56.896Z,69.40
2023-03-06T13:25:30.123Z,69.30
2023-03-06T13:31:03.492Z,69.60
2023-03-06T13:33:31.636Z,69.80
2023-03-06T13:39:33.547Z,70.20
2023-03-06T13:45:16.856Z,70.50
2023-03-06T13:50:57.859Z,70.30
2023-03-06T13:56:40.976Z,70.30
2023-03-06T14:02:24.092Z,71.10
2023-03-06T14:21:04.433Z,72.00
2023-03-06T14:26:47.308Z,72.00
2023-03-06T14:32:33.049Z,71.80
2023-03-06T14:44:11.244Z,72.40
2023-03-06T14:49:54.486Z,72.00
2023-03-06T15:01:30.874Z,72.30
2023-03-06T15:07:13.902Z,72.80
2023-03-06T15:19:22.885Z,75.10
2023-03-06T15:25:05.795Z,79.60
2023-03-06T15:30:50.384Z,80.40
2023-03-06T15:36:33.229Z,79.80
2023-03-06T15:42:16.169Z,81.50
2023-03-06T15:47:59.042Z,81.20
2023-03-06T15:53:42.072Z,80.80
2023-03-06T15:59:32.740Z,80.10
2023-03-06T16:05:15.863Z,78.70
2023-03-06T16:10:56.869Z,78.30
2023-03-06T16:29:04.274Z,76.30
2023-03-06T16:34:48.128Z,76.00
2023-03-06T16:46:29.491Z,76.60
2023-03-06T16:52:12.356Z,75.60
2023-03-06T16:57:55.308Z,75.10
2023-03-06T17:03:42.284Z,75.80
2023-03-06T17:09:23.976Z,76.30
2023-03-06T17:15:06.478Z,76.70
2023-03-06T17:27:15.949Z,77.90
2023-03-06T17:32:59.004Z,77.90
2023-03-06T17:38:42.700Z,78.00
2023-03-06T17:44:43.837Z,77.70
2023-03-06T17:50:26.588Z,78.00
2023-03-06T17:56:09.580Z,78.50
2023-03-06T18:01:52.548Z,77.70
2023-03-06T18:07:36.583Z,76.20
2023-03-06T18:13:23.466Z,77.00
2023-03-06T18:19:10.810Z,77.00
2023-03-06T18:24:53.850Z,76.90
2023-03-06T18:30:36.646Z,77.80
2023-03-06T18:36:19.595Z,82.30
2023-03-06T18:47:56.666Z,84.50
2023-03-06T18:53:39.966Z,85.30
2023-03-06T18:59:23.130Z,86.40
2023-03-06T19:05:05.987Z,87.10
2023-03-06T19:10:48.775Z,87.40
2023-03-06T19:16:31.278Z,87.10
2023-03-06T19:31:42.969Z,85.90
2023-03-06T19:37:15.825Z,86.20
2023-03-06T19:42:48.380Z,85.90
2023-03-06T19:48:22.753Z,85.40
2023-03-06T19:53:55.541Z,85.50
2023-03-06T19:59:28.288Z,85.30
2023-03-06T20:04:59.120Z,84.80
2023-03-06T20:10:32.066Z,84.90
2023-03-06T20:16:04.934Z,86.00
2023-03-06T20:28:06.338Z,85.20
2023-03-06T20:33:39.171Z,85.90
2023-03-06T20:39:30.415Z,86.00
2023-03-06T20:45:03.955Z,86.20
2023-03-06T20:50:37.135Z,86.20
2023-03-06T20:56:10.028Z,86.30
2023-03-06T21:01:42.019Z,85.70
2023-03-06T21:13:41.094Z,86.30
2023-03-06T21:19:14.007Z,85.90
2023-03-06T21:31:13.097Z,85.20
2023-03-06T21:36:46.062Z,85.10
2023-03-06T21:42:37.482Z,85.00
2023-03-06T21:48:10.288Z,84.50
2023-03-06T21:53:40.920Z,84.60
2023-03-06T21:59:14.781Z,84.40
2023-03-06T22:04:58.141Z,84.30
2023-03-06T22:10:34.707Z,83.50
2023-03-06T22:16:26.417Z,83.30
2023-03-06T22:21:59.660Z,83.00
2023-03-06T22:34:00.795Z,82.90
2023-03-06T22:39:33.552Z,82.40
2023-03-06T22:45:06.575Z,82.40
2023-03-06T22:50:40.111Z,82.50
2023-03-06T22:56:10.746Z,83.40
2023-03-06T23:01:42.887Z,83.80
2023-03-06T23:07:16.936Z,84.90
2023-03-06T23:12:48.046Z,85.60
2023-03-06T23:18:20.903Z,85.30
2023-03-06T23:27:14.050Z,84.70
2023-03-06T23:33:14.770Z,85.00
2023-03-06T23:38:59.676Z,85.60
2023-03-06T23:44:42.226Z,86.10
2023-03-06T23:50:24.129Z,86.30
2023-03-06T23:56:07.222Z,86.60
